Date,TemperatureHighF,TemperatureAvgF,TemperatureLowF,DewpointHighF,DewpointAvgF,DewpointLowF,HumidityHigh,HumidityAvg,HumidityLow,PressureMaxIn,PressureMinIn,WindSpeedMaxMPH,WindSpeedAvgMPH,GustSpeedMaxMPH,PrecipitationSumIn
2013-1-1,50,48,44,50,40,29,97,78,47,30.10,29.91,6,1,7,0.18
2013-1-2,50,44,40,49,42,38,97,93,81,30.19,29.91,9,1,10,0.30
2013-1-3,45,39,32,39,36,30,96,89,72,30.26,30.15,5,0,5,0.00
2013-1-4,50,39,29,31,27,23,96,64,37,30.32,30.19,8,1,8,0.00
2013-1-5,49,39,29,32,26,22,79,61,40,30.40,30.26,6,0,6,0.00
2013-1-6,50,43,37,39,36,30,93,76,60,30.26,30.06,3,0,4,0.00
2013-1-7,52,40,33,35,32,30,89,75,49,30.44,30.17,12,1,13,0.00
2013-1-8,54,42,32,41,36,29,93,78,55,30.47,30.37,3,0,3,0.00
2013-1-9,68,52,38,52,45,36,96,79,54,30.45,30.33,5,0,5,0.00
2013-1-10,52,52,52,50,49,48,90,89,87,30.43,30.40,1,0,1,0.00
2013-1-11,52,50,42,52,47,32,98,91,57,30.44,30.13,4,1,7,0.20
2013-1-12,72,58,51,64,56,50,99,94,76,30.16,30.08,3,0,3,0.00
2013-1-13,75,63,55,64,59,54,100,87,65,30.13,30.03,7,1,7,0.00
2013-1-14,70,64,59,64,60,57,98,89,80,30.14,30.05,6,0,6,0.01
2013-1-15,62,46,44,62,45,43,98,96,92,30.24,30.05,14,2,14,0.01
2013-1-16,50,46,43,49,46,43,99,98,98,30.08,29.97,9,0,9,0.14
2013-1-17,51,46,33,51,46,32,99,98,94,30.14,29.90,20,2,24,0.89
2013-1-18,47,36,29,34,30,23,97,81,44,30.54,30.14,10,1,11,0.22
2013-1-19,54,40,28,36,30,25,94,69,39,30.52,30.16,6,0,7,0.01
2013-1-20,65,50,42,40,34,30,76,55,34,30.16,29.97,10,2,10,0.00
2013-1-21,60,47,34,34,30,18,87,54,30,30.08,29.85,7,1,12,0.00
2013-1-22,44,41,38,20,19,16,48,41,35,30.02,29.94,5,1,7,0.00
2013-1-23,40,31,20,19,14,4,71,50,31,30.40,30.07,5,0,9,0.00
2013-1-24,37,32,24,26,16,6,69,52,30,30.53,29.96,18,2,19,0.00
2013-1-25,28,24,20,26,14,6,93,68,43,30.55,30.12,6,0,6,0.00
2013-1-26,37,30,27,34,28,25,96,92,82,30.41,30.10,5,0,6,0.00
2013-1-27,40,31,24,30,26,22,96,85,63,30.62,30.41,8,1,8,0.02
2013-1-28,53,42,30,48,37,27,92,81,63,30.52,30.22,8,1,8,0.04
2013-1-29,73,59,49,59,53,47,93,81,58,30.23,30.06,6,2,6,0.00
2013-1-30,72,67,60,65,62,57,95,86,76,30.06,29.35,21,4,21,0.09
2013-1-31,68,47,34,65,33,20,93,59,33,30.00,29.40,16,3,19,0.21
2013-2-1,41,36,26,29,16,5,72,45,24,30.40,29.88,13,2,13,0.00
2013-2-2,45,33,20,36,14,8,80,47,29,30.41,30.03,10,1,10,0.00
2013-2-3,51,42,34,37,31,24,91,66,43,30.03,29.85,7,1,10,0.00
2013-2-4,49,39,28,28,24,20,81,57,35,30.15,29.98,7,1,7,0.00
2013-2-5,60,48,40,37,33,28,74,58,37,30.01,29.87,6,1,7,0.00
2013-2-6,65,48,36,36,32,27,87,56,27,30.29,29.96,10,1,10,0.00
2013-2-7,48,42,36,42,37,34,96,84,71,30.33,29.98,12,2,13,0.38
2013-2-8,56,46,40,47,40,30,96,82,53,30.03,29.80,15,2,17,0.66
2013-2-9,53,40,30,30,25,19,84,57,28,30.36,30.02,11,1,12,0.00
2013-2-10,52,41,30,40,24,19,82,53,30,30.49,30.21,7,1,8,0.01
2013-2-11,63,56,45,60,53,40,98,91,81,30.22,29.90,8,2,9,0.04
2013-2-12,65,54,46,55,37,28,91,57,28,30.07,29.89,8,1,9,0.00
2013-2-13,50,46,43,47,43,35,97,90,56,29.94,29.61,8,1,8,0.23
2013-2-14,43,40,37,37,35,34,88,84,79,29.90,29.82,4,0,4,0.00
2013-2-15,64,46,32,40,35,31,96,66,35,30.09,29.92,6,0,7,0.00
2013-2-16,46,37,31,36,33,29,95,86,67,29.97,29.82,7,1,10,0.22
2013-2-17,37,30,24,29,17,10,94,61,34,30.29,29.91,12,1,13,0.00
2013-2-18,51,36,20,27,19,15,86,55,27,30.43,30.27,8,1,9,0.08
2013-2-19,54,44,37,50,39,27,96,82,60,30.27,29.85,14,2,14,0.08
2013-2-20,53,42,33,40,22,13,95,48,22,30.14,29.95,9,1,9,0.00
2013-2-21,56,40,27,24,21,17,80,48,25,30.27,30.12,10,1,10,0.00
2013-2-22,42,36,32,35,31,22,96,85,46,30.36,30.14,7,1,10,0.29
2013-2-23,44,40,36,43,39,35,97,96,95,30.14,29.80,7,1,8,0.92
2013-2-24,65,50,41,46,39,30,98,70,37,30.03,29.78,9,1,10,0.09
2013-2-25,43,38,33,32,25,21,73,60,49,30.23,30.03,13,2,15,0.00
2013-2-26,57,45,36,57,42,26,99,89,68,30.15,29.55,14,2,19,1.10
2013-2-27,61,50,43,47,41,38,97,75,44,29.78,29.61,6,2,7,0.00
2013-2-28,49,43,35,40,33,28,94,70,46,29.84,29.68,7,1,8,0.00
2013-3-1,50,41,33,32,30,28,84,65,46,29.91,29.83,9,1,11,0.00
2013-3-2,52,39,30,30,27,21,86,63,40,29.92,29.80,11,1,11,0.00
2013-3-3,50,37,29,25,21,17,71,54,36,29.97,29.83,8,1,9,0.00
2013-3-4,50,37,27,24,18,15,64,47,26,30.11,29.97,9,1,10,0.00
2013-3-5,51,43,35,44,35,20,96,75,44,30.09,29.57,8,1,9,0.34
2013-3-6,46,42,36,44,34,28,98,77,57,30.01,29.49,14,2,17,0.00
2013-3-7,50,42,33,33,30,27,85,65,48,30.22,30.01,11,1,12,0.00
2013-3-8,56,44,32,30,27,25,79,55,33,30.27,30.14,16,1,16,0.00
2013-3-9,63,47,33,34,30,27,78,55,29,30.33,30.22,10,1,13,0.00
2013-3-10,66,51,36,34,28,21,80,47,19,30.32,30.20,7,1,8,0.00
2013-3-11,70,56,42,54,45,29,90,67,42,30.24,29.94,11,2,13,0.00
2013-3-12,72,62,49,64,55,37,97,80,52,29.94,29.73,13,2,14,0.37
2013-3-13,58,47,36,37,29,21,87,53,30,30.11,29.92,13,1,14,0.00
2013-3-14,38,36,34,22,20,18,54,53,51,30.16,30.11,9,1,9,0.00
2013-3-15,62,52,29,37,32,21,77,48,34,30.17,29.89,5,1,10,0.00
2013-3-16,78,64,53,52,46,36,69,52,37,29.89,29.62,10,2,13,0.00
2013-3-17,62,51,40,53,46,37,96,80,69,30.17,29.80,14,3,16,0.00
2013-3-18,43,40,37,42,39,36,97,96,93,30.20,29.86,11,2,11,0.29
2013-3-19,68,52,40,47,35,11,98,63,20,30.00,29.81,7,1,9,0.00
2013-3-20,56,46,38,27,19,13,59,34,21,30.11,29.77,7,1,7,0.00
2013-3-21,45,43,42,32,28,25,61,54,50,29.77,29.72,3,0,3,0.00
2013-3-22,52,39,26,24,17,13,65,44,22,30.08,29.96,2,1,10,0.00
2013-3-23,56,46,38,34,27,22,72,50,32,30.05,29.90,5,0,6,0.00
2013-3-24,42,39,36,38,35,30,95,86,67,29.93,29.56,16,2,17,0.67
2013-3-25,49,41,35,38,31,24,95,72,42,29.80,29.55,11,1,12,0.00
2013-3-26,50,43,34,31,28,24,73,56,44,30.09,29.80,8,1,9,0.00
2013-3-27,55,43,35,28,26,22,75,53,32,30.21,30.09,15,1,15,0.00
2013-3-28,59,45,32,28,26,24,75,51,29,30.28,30.13,11,1,13,0.00
2013-3-29,63,46,33,32,28,26,79,52,27,30.33,30.17,11,1,12,0.00
2013-3-30,70,54,41,45,35,27,71,52,27,30.24,30.07,7,1,7,0.00
2013-3-31,68,57,48,58,51,43,97,83,68,30.09,29.78,9,1,9,0.43
2013-4-1,76,61,54,55,48,38,98,68,33,29.95,29.77,13,1,13,0.00
2013-4-2,63,50,38,38,29,24,77,47,25,30.15,29.95,12,1,15,0.00
2013-4-3,63,50,41,31,24,18,58,37,21,30.28,30.13,11,1,12,0.00
2013-4-4,48,42,39,40,32,23,95,70,42,30.36,29.91,16,2,17,0.50
2013-4-5,63,49,39,49,44,38,96,84,55,30.00,29.85,12,1,12,0.00
2013-4-6,67,54,44,44,33,25,90,50,28,30.27,30.00,14,2,14,0.00
2013-4-7,74,56,36,47,40,33,89,59,36,30.28,30.09,9,1,9,0.00
2013-4-8,80,67,56,59,54,47,92,65,42,30.16,30.02,8,2,10,0.00
2013-4-9,87,73,61,62,58,56,93,64,38,30.15,30.01,7,1,8,0.00
2013-4-10,89,75,64,64,61,58,87,63,39,30.07,29.91,8,2,8,0.00
2013-4-11,82,73,64,67,62,58,91,70,49,29.97,29.77,9,2,10,0.00
2013-4-12,81,72,65,71,65,49,96,79,54,29.79,29.57,12,2,12,0.55
2013-4-13,78,64,52,51,43,39,68,48,28,29.98,29.73,7,1,7,0.00
2013-4-14,84,66,48,52,45,38,91,53,22,30.09,29.98,6,1,6,0.00
2013-4-15,73,65,59,59,56,52,89,74,58,30.19,30.00,9,1,11,0.01
2013-4-16,79,65,57,63,59,56,98,83,54,30.30,30.18,7,0,8,0.00
2013-4-17,86,71,58,67,62,57,98,77,52,30.21,30.07,4,1,6,0.00
2013-4-18,80,70,61,63,61,58,94,74,50,30.18,30.02,9,1,9,0.00
2013-4-19,82,72,65,70,66,62,98,84,62,30.03,29.69,13,2,13,0.05
2013-4-20,65,56,48,65,43,33,98,65,33,30.26,29.79,11,1,11,0.00
2013-4-21,61,51,42,43,40,38,94,69,48,30.48,30.26,13,2,17,0.00
2013-4-22,62,49,38,46,40,33,88,71,47,30.49,30.26,15,3,17,0.00
2013-4-23,68,55,47,52,48,44,92,78,51,30.26,30.11,12,1,12,0.00
2013-4-24,79,64,49,59,54,48,97,73,46,30.14,29.94,8,1,9,0.00
2013-4-25,74,62,53,58,48,40,87,62,41,30.26,29.99,10,1,11,0.00
2013-4-26,77,60,49,51,44,35,97,61,25,30.42,30.26,11,1,12,0.00
2013-4-27,77,63,52,49,46,41,77,55,33,30.37,30.24,4,0,5,0.00
2013-4-28,64,58,54,56,50,43,96,76,58,30.25,30.09,2,0,3,0.00
2013-4-29,72,63,54,64,61,53,99,92,75,30.10,29.95,2,0,3,0.00
2013-4-30,66,61,56,61,58,55,99,92,78,30.17,29.99,9,1,11,0.00
2013-5-1,61,58,57,59,56,55,97,93,89,30.31,30.14,12,2,15,0.00
2013-5-2,62,58,50,58,55,48,96,90,83,30.33,30.21,9,1,12,0.00
2013-5-3,70,58,49,56,50,44,95,76,50,30.26,30.15,10,2,13,0.00
2013-5-4,64,56,49,54,50,46,91,80,65,30.18,30.05,14,2,16,0.00
2013-5-5,60,56,49,56,53,46,97,90,85,30.08,29.96,10,2,12,0.00
2013-5-6,66,60,54,65,60,53,99,97,93,29.96,29.81,9,1,12,0.00
2013-5-7,73,59,52,61,54,50,100,84,49,29.94,29.84,4,0,6,0.02
2013-5-8,74,62,52,61,57,51,98,85,58,30.00,29.91,4,0,6,0.15
2013-5-9,85,68,54,63,59,54,99,76,41,30.04,29.96,4,0,6,0.00
2013-5-10,89,74,57,65,62,55,96,67,40,30.04,29.90,7,1,7,0.00
2013-5-11,85,76,67,68,64,60,97,68,49,29.90,29.75,6,1,9,0.26
2013-5-12,78,66,55,65,53,38,97,66,37,30.00,29.75,11,1,12,0.02
2013-5-13,69,57,46,44,39,33,82,54,31,30.17,30.00,10,1,11,0.00
2013-5-14,76,58,42,48,41,34,93,58,28,30.25,30.06,6,0,6,0.00
2013-5-15,91,74,56,64,58,44,78,58,40,30.07,29.87,5,1,5,0.00
2013-5-16,87,76,67,65,62,59,83,63,43,29.95,29.86,6,1,7,0.00
2013-5-17,93,76,63,66,63,61,95,67,38,30.06,29.95,6,0,6,0.00
2013-5-18,81,71,64,71,66,62,97,87,65,30.13,30.04,7,0,7,0.15
2013-5-19,77,69,65,72,67,64,99,93,75,30.13,30.04,7,0,7,0.72
2013-5-20,76,70,67,72,69,66,99,97,83,30.09,30.01,4,0,5,0.64
2013-5-21,87,76,68,75,70,68,99,83,62,30.03,29.92,5,1,5,0.00
2013-5-22,86,75,69,71,69,67,96,84,59,30.00,29.88,8,1,8,0.07
2013-5-23,87,73,68,71,69,66,98,87,57,29.94,29.80,6,0,6,0.10
2013-5-24,74,65,53,68,55,39,99,73,40,30.16,29.78,15,1,15,0.07
2013-5-25,78,59,43,49,42,36,92,58,23,30.26,30.11,7,1,9,0.00
2013-5-26,78,62,49,52,46,41,85,59,31,30.27,30.15,5,0,7,0.00
2013-5-27,84,67,51,57,53,50,96,65,36,30.27,30.14,4,0,4,0.00
2013-5-28,87,74,60,69,63,55,93,71,53,30.24,30.12,6,1,7,0.00
2013-5-29,89,76,63,68,65,61,96,70,47,30.22,30.13,6,1,7,0.00
2013-5-30,92,77,64,69,65,62,96,70,38,30.24,30.14,1,0,5,0.00
2013-5-31,91,79,68,71,68,66,96,72,44,30.19,30.07,1,1,5,0.00
2013-6-1,92,78,68,71,68,66,96,72,47,30.12,29.99,6,1,7,0.00
2013-6-2,88,78,69,71,68,66,92,71,51,30.03,29.88,5,1,7,0.00
2013-6-3,85,74,67,75,71,67,98,90,69,29.93,29.80,4,0,6,0.50
2013-6-4,80,71,65,68,64,62,99,82,59,30.08,29.90,11,0,13,0.01
2013-6-5,86,72,62,64,61,56,96,70,42,30.13,30.00,4,0,6,0.00
2013-6-6,75,70,66,73,67,59,98,90,71,30.03,29.81,5,0,6,0.81
2013-6-7,76,71,68,76,71,68,100,99,95,29.83,29.41,12,1,15,3.02
2013-6-8,86,74,67,73,70,65,100,87,63,30.07,29.79,6,0,7,0.03
2013-6-9,91,77,67,75,71,67,99,83,56,30.14,30.03,4,0,5,0.21
2013-6-10,83,74,71,77,73,70,99,94,80,30.08,29.87,8,1,9,0.39
2013-6-11,90,77,70,71,69,66,95,77,48,29.93,29.86,6,1,8,0.00
2013-6-12,73,71,68,67,67,65,92,87,83,29.92,29.89,1,0,2,0.00
2013-6-13,98,77,69,78,70,63,96,83,44,29.83,29.55,8,1,15,0.13
2013-6-14,82,71,62,68,61,58,93,71,47,29.99,29.69,12,1,14,0.00
2013-6-15,89,73,60,66,62,57,93,71,44,30.10,29.99,4,0,5,0.00
2013-6-16,90,77,66,71,65,55,81,66,52,30.10,29.97,6,1,8,0.00
2013-6-17,88,78,72,74,70,65,89,76,62,30.01,29.90,4,1,5,0.00
2013-6-18,84,75,70,74,71,68,98,89,72,29.94,29.71,6,0,8,0.21
2013-6-19,81,73,66,69,67,64,99,83,60,30.10,29.84,12,1,12,0.00
2013-6-20,85,73,63,66,63,55,97,73,49,30.23,30.10,8,1,8,0.00
2013-6-21,86,72,57,68,60,53,93,67,38,30.24,30.16,10,1,10,0.00
2013-6-22,82,73,69,72,70,67,98,90,71,30.19,30.09,9,1,9,0.06
2013-6-23,88,76,68,76,72,67,100,87,64,30.19,30.10,3,0,3,0.01
2013-6-24,88,78,72,78,73,70,97,85,67,30.18,30.06,4,0,4,0.00
2013-6-25,92,76,71,81,72,69,99,88,62,30.11,29.98,12,1,12,1.09
2013-6-26,95,78,69,78,72,67,98,84,52,30.01,29.85,6,1,7,0.50
2013-6-27,92,77,68,78,72,67,98,87,59,29.89,29.68,5,1,5,0.00
2013-6-28,95,83,71,77,73,69,98,76,52,29.72,29.53,7,1,12,1.16
2013-6-29,88,76,69,76,72,68,100,88,65,29.71,29.58,4,0,6,0.66
2013-6-30,88,76,71,77,73,70,98,91,69,29.84,29.69,5,1,6,0.43
2013-7-1,83,75,70,76,73,70,100,92,77,29.97,29.81,6,1,6,1.17
2013-7-2,78,73,71,74,72,70,99,97,88,30.17,29.97,5,0,6,1.08
2013-7-3,88,77,73,78,75,72,99,94,69,30.22,30.14,5,1,6,0.53
2013-7-4,92,80,73,77,74,71,99,83,51,30.26,30.15,4,1,5,0.00
2013-7-5,93,81,72,78,74,71,99,82,56,30.25,30.13,4,0,4,0.00
2013-7-6,92,80,73,78,74,71,97,82,58,30.23,30.09,3,0,5,0.00
2013-7-7,91,80,70,77,73,69,99,81,61,30.17,30.03,5,0,5,0.00
2013-7-8,92,80,72,79,74,71,98,85,59,30.14,30.05,5,0,5,0.12
2013-7-9,91,78,71,80,74,71,99,91,66,30.13,30.04,5,0,5,0.04
2013-7-10,90,79,74,79,75,71,97,87,68,30.08,29.92,7,1,7,0.00
2013-7-11,86,75,72,76,73,71,99,94,74,29.96,29.86,3,0,6,0.53
2013-7-12,77,73,71,73,71,70,100,95,87,30.01,29.84,8,0,8,0.08
2013-7-13,80,74,70,78,73,69,99,97,90,30.16,29.99,6,0,7,0.26
2013-7-14,90,78,70,77,74,70,100,87,62,30.28,30.16,4,0,5,0.00
2013-7-15,94,79,70,77,73,69,100,82,53,30.29,30.22,4,0,5,0.01
2013-7-16,99,81,70,81,74,70,100,82,47,30.25,30.14,6,0,7,0.07
2013-7-17,96,84,74,79,76,72,99,79,52,30.19,30.07,8,0,8,0.00
2013-7-18,96,83,75,80,77,74,99,81,56,30.12,30.00,3,0,4,0.00
2013-7-19,93,83,76,80,76,72,96,81,61,30.07,29.94,5,1,6,0.00
2013-7-20,91,81,75,78,75,73,92,82,64,30.00,29.89,5,1,6,0.00
2013-7-21,90,78,74,78,74,71,98,87,65,29.97,29.87,4,0,5,0.07
2013-7-22,91,80,72,78,74,72,100,86,64,29.92,29.79,4,0,5,0.00
2013-7-23,93,82,76,77,74,73,92,79,56,29.82,29.68,5,1,5,0.00
2013-7-24,97,81,71,76,72,68,97,76,50,29.82,29.69,8,0,9,0.00
2013-7-25,80,74,69,72,69,66,97,86,73,30.01,29.78,10,1,11,0.02
2013-7-26,88,74,62,69,65,62,98,76,50,30.09,29.99,6,0,7,0.00
2013-7-27,88,75,67,72,69,66,99,84,55,30.04,29.91,7,0,7,0.10
2013-7-28,92,78,70,75,72,70,99,83,55,29.98,29.89,4,0,4,0.00
2013-7-29,90,78,70,74,70,66,98,78,52,30.13,29.96,8,1,8,0.11
2013-7-30,89,76,64,71,67,61,91,75,50,30.20,30.10,6,0,6,0.00
2013-7-31,85,76,71,75,72,68,98,89,68,30.12,29.98,6,0,7,0.24
2013-8-1,86,75,70,76,72,70,99,93,70,30.00,29.82,7,0,8,1.24
2013-8-2,94,78,68,75,71,67,100,83,51,29.99,29.88,5,0,6,0.15
2013-8-3,90,78,72,78,74,71,99,89,64,29.99,29.87,4,0,5,0.36
2013-8-4,86,75,67,73,68,61,100,82,51,30.00,29.85,11,1,14,0.00
2013-8-5,84,74,64,68,64,59,97,75,50,30.08,29.98,5,0,5,0.00
2013-8-6,85,75,68,71,68,64,98,80,58,30.04,29.97,4,0,5,0.07
2013-8-7,90,78,68,73,70,66,97,79,53,30.08,29.99,4,0,4,0.00
2013-8-8,92,80,71,75,72,70,98,79,55,30.04,29.96,4,0,4,0.00
2013-8-9,94,83,76,78,75,73,95,79,59,30.02,29.94,5,1,6,0.00
2013-8-10,96,82,74,81,76,73,98,85,56,30.07,29.96,13,0,13,0.10
2013-8-11,97,80,72,81,75,72,100,86,52,30.08,29.97,6,0,6,0.03
2013-8-12,97,82,74,77,75,72,100,80,48,30.01,29.90,9,0,9,0.01
2013-8-13,92,79,72,80,75,71,99,90,66,29.95,29.74,8,0,11,1.07
2013-8-14,75,71,63,74,67,59,95,88,70,30.07,29.79,4,0,10,0.00
2013-8-15,80,68,61,62,59,56,92,76,50,30.15,30.05,8,1,9,0.00
2013-8-16,72,66,60,63,61,57,93,83,69,30.16,30.08,8,0,8,0.00
2013-8-17,72,68,64,71,66,61,99,93,86,30.16,30.09,10,1,10,0.38
2013-8-18,84,73,68,73,70,66,100,90,68,30.18,30.09,7,1,7,0.00
2013-8-19,74,70,66,72,68,65,99,96,89,30.17,30.07,5,0,6,0.75
2013-8-20,84,75,68,75,72,68,100,91,74,30.17,30.08,5,0,5,0.00
2013-8-21,88,76,70,78,73,69,99,92,71,30.20,30.08,5,0,12,0.92
2013-8-22,93,78,69,76,72,69,100,84,53,30.12,29.96,5,0,7,0.00
2013-8-23,91,78,69,76,72,68,99,84,58,30.03,29.89,3,0,11,0.00
2013-8-24,83,72,65,67,63,61,95,75,50,30.27,30.04,7,2,13,0.00
2013-8-25,81,71,62,64,60,57,96,71,49,30.38,30.26,10,1,13,0.00
2013-8-26,77,63,56,64,59,55,99,89,60,30.31,30.09,0,0,0,0.00
2013-8-27,91,76,64,75,67,59,91,76,53,30.10,29.93,8,0,8,0.00
2013-8-28,84,77,71,77,74,70,99,90,75,29.95,29.84,3,0,4,0.00
2013-8-29,88,79,73,76,74,70,92,83,65,29.99,29.80,10,1,12,0.00
2013-8-30,89,75,66,71,68,65,98,81,47,30.04,29.91,4,0,5,0.00
2013-8-31,90,78,68,74,71,67,99,81,57,29.95,29.84,5,0,5,0.00
2013-9-1,92,78,71,81,74,70,99,88,63,29.87,29.75,10,0,10,1.01
2013-9-2,90,78,70,78,74,70,100,89,64,29.86,29.77,3,0,4,0.00
2013-9-3,92,78,72,80,74,71,99,89,59,29.91,29.77,8,0,8,0.00
2013-9-4,88,75,69,73,70,67,99,85,62,30.06,29.91,10,1,10,0.00
2013-9-5,91,75,67,72,67,62,99,78,42,30.07,29.99,8,0,8,0.00
2013-9-6,84,72,65,67,63,57,91,74,52,30.15,30.05,11,1,11,0.00
2013-9-7,86,70,59,68,63,58,98,80,48,30.12,29.95,1,0,1,0.00
2013-9-8,90,74,63,71,66,62,98,79,41,29.97,29.88,1,0,1,0.00
2013-9-9,89,76,66,72,69,66,99,82,55,30.13,29.96,0,0,1,0.00
2013-9-10,94,78,68,74,70,67,99,79,48,30.21,30.11,0,0,0,0.00
2013-9-11,92,76,67,74,69,66,98,82,52,30.18,30.05,0,0,0,0.00
2013-9-12,92,80,71,76,72,68,93,80,56,30.05,29.77,1,0,1,0.00
2013-9-13,87,75,66,71,66,58,95,75,51,29.86,29.72,1,0,1,0.00
2013-9-14,76,66,59,59,54,48,84,65,45,30.12,29.86,14,2,14,0.00
2013-9-15,83,66,54,64,58,52,96,76,47,30.23,30.10,5,0,5,0.00
2013-9-16,87,74,65,72,66,61,97,78,48,30.17,30.00,11,1,11,0.00
2013-9-17,77,67,59,62,56,52,86,69,45,30.30,30.17,6,2,16,0.00
2013-9-18,75,61,52,56,52,50,93,76,49,30.30,30.17,9,1,9,0.00
2013-9-19,78,66,55,64,58,53,95,79,55,30.18,30.07,1,0,5,0.00
2013-9-20,71,68,62,67,65,60,98,91,84,30.08,29.95,1,0,3,0.01
2013-9-21,76,70,65,71,68,64,98,93,83,29.95,29.71,5,0,5,0.02
2013-9-22,77,68,62,68,62,57,98,83,57,29.87,29.69,14,2,17,0.01
2013-9-23,73,63,54,58,54,51,94,76,54,30.06,29.87,12,1,12,0.00
2013-9-24,77,62,53,62,57,52,97,84,58,30.09,29.94,6,0,6,0.00
2013-9-25,76,64,53,64,59,53,99,87,63,29.95,29.85,5,0,5,0.00
2013-9-26,77,67,58,62,59,51,96,77,45,30.02,29.85,12,1,12,0.00
2013-9-27,73,63,55,61,57,54,98,82,59,30.17,30.02,14,1,14,0.00
2013-9-28,73,62,53,59,56,52,97,81,58,30.25,30.14,14,1,16,0.00
2013-9-29,75,62,53,59,56,52,98,82,52,30.16,30.01,11,1,11,0.00
2013-9-30,78,62,54,62,57,53,99,84,50,30.09,29.98,9,0,9,0.00
2013-10-1,84,66,53,65,59,52,99,81,49,30.11,30.00,4,0,4,0.00
2013-10-2,86,70,60,66,62,59,96,78,46,30.11,30.01,8,0,8,0.00
2013-10-3,85,71,60,68,64,59,98,80,54,30.11,30.03,3,0,3,0.00
2013-10-4,88,73,64,69,66,62,97,79,50,30.11,30.02,4,0,4,0.00
2013-10-5,90,74,63,71,66,62,98,78,47,30.09,30.00,3,0,3,0.00
2013-10-6,83,73,64,72,69,64,99,88,69,30.05,29.92,5,0,6,0.00
2013-10-7,76,71,64,73,69,60,99,96,87,29.96,29.83,10,1,10,0.00
2013-10-8,65,60,57,61,52,47,88,74,64,30.18,29.95,17,3,17,0.00
2013-10-9,62,58,54,57,54,51,97,86,77,30.17,30.06,18,3,18,0.00
2013-10-10,60,56,53,59,55,52,98,96,95,30.06,29.92,13,2,14,0.00
2013-10-11,66,62,58,62,60,58,98,94,87,29.95,29.89,8,1,8,0.00
2013-10-12,68,64,61,66,62,60,97,95,90,30.06,29.93,8,0,8,0.00
2013-10-13,67,64,62,65,63,61,98,96,91,30.18,30.05,11,2,11,0.02
2013-10-14,65,62,57,63,61,56,99,95,88,30.22,30.16,14,2,14,0.00
2013-10-15,57,55,53,56,54,52,99,98,97,30.18,30.13,5,1,5,0.00
2013-10-21,56,55,55,50,50,49,84,83,81,30.04,30.02,0,0,0,0.00
2013-10-22,60,58,57,58,57,56,97,95,93,29.84,29.80,1,0,0,0.00
2013-10-23,66,58,48,58,50,36,99,77,41,29.99,29.67,8,1,0,0.00
2013-10-24,60,47,37,40,36,34,88,67,41,30.18,29.99,4,0,0,0.00
2013-10-25,57,46,38,39,34,30,84,66,39,30.36,30.18,9,1,0,0.00
2013-10-26,59,44,31,40,34,29,94,70,37,30.36,30.07,5,0,0,0.00
2013-10-27,68,54,43,47,42,37,88,67,41,30.12,30.03,7,0,0,0.00
2013-10-28,69,56,45,57,50,43,95,82,59,30.25,30.12,2,0,0,0.00
2013-11-1,73,69,66,67,66,65,98,91,78,29.78,29.65,5,1,0,0.00
2013-11-3,46,46,45,40,40,40,82,81,81,30.13,30.12,1,0,0,0.00
2013-11-12,38,37,35,33,25,18,90,64,49,30.42,30.31,10,2,0,0.02
2013-11-13,45,34,28,24,20,17,80,57,34,30.54,30.42,12,1,0,0.00
2013-11-14,58,40,27,31,26,22,88,60,27,30.48,30.33,5,0,0,0.00
2013-11-15,63,48,33,50,38,26,92,70,45,30.37,30.21,3,0,0,0.01
2013-11-16,68,56,51,60,54,49,97,91,76,30.27,30.20,6,0,0,0.00
2013-11-17,71,62,54,66,59,53,99,91,73,30.22,29.88,5,0,0,0.00
2013-11-18,69,63,54,67,55,34,98,77,42,29.94,29.79,10,1,0,0.00
2013-11-19,57,49,42,35,31,29,63,51,37,30.32,29.93,14,1,0,0.00
2013-11-20,51,44,38,40,33,28,83,66,54,30.45,30.32,12,2,0,0.01
2013-11-21,60,50,42,50,44,38,90,80,68,30.51,30.38,7,1,0,0.00
2013-11-22,70,59,47,61,54,45,96,85,72,30.39,30.07,5,0,0,0.00
2013-11-23,62,55,42,61,45,23,98,71,40,30.16,30.02,9,1,0,0.00
2013-11-24,42,33,26,25,12,5,60,43,26,30.55,30.16,12,1,0,0.00
2013-11-25,36,26,21,15,12,8,73,56,36,30.61,30.40,5,0,0,0.00
2013-11-26,66,45,36,66,34,14,99,67,40,30.40,29.55,8,2,0,0.02
2013-11-27,66,41,30,66,38,20,98,89,65,30.16,29.49,12,1,0,0.02
2013-11-28,44,32,24,26,22,17,87,66,39,30.50,30.16,10,1,0,0.00
2013-11-29,52,37,26,29,26,24,92,67,40,30.65,30.48,12,1,0,0.00
2013-11-30,50,37,29,36,29,24,87,75,57,30.64,30.37,8,1,0,0.00
2013-12-1,60,43,29,40,34,28,94,73,38,30.37,30.02,3,0,0,0.00
2013-12-2,58,47,39,45,41,37,92,81,49,30.02,29.82,4,0,0,0.00
2013-12-3,58,48,36,48,42,34,97,81,63,29.99,29.86,5,1,0,0.00
2013-12-4,64,56,52,58,53,48,97,88,81,30.09,29.98,3,0,0,0.00
2013-12-5,68,62,54,64,60,53,99,95,86,30.13,30.02,5,1,0,0.00
2013-12-6,78,70,65,66,64,62,95,82,66,30.07,29.95,13,2,0,0.00
2013-12-7,70,49,42,66,44,32,95,84,68,30.45,29.96,14,3,0,0.02
2013-12-8,42,35,33,33,32,29,96,88,67,30.47,30.29,16,2,0,0.01
2013-12-9,46,40,34,46,39,33,98,97,96,30.29,30.06,4,0,0,0.00
2013-12-10,47,43,30,46,41,27,98,94,83,30.33,29.91,7,0,0,0.00
2013-12-11,50,36,27,33,27,23,95,72,38,30.46,30.29,6,0,0,0.00
2013-12-12,46,36,28,30,24,14,89,63,29,30.43,30.28,13,1,0,0.00
2013-12-13,51,37,26,32,24,20,84,62,31,30.41,30.28,8,0,0,0.00
2013-12-14,47,41,39,41,36,29,97,82,54,30.31,29.77,9,1,0,0.00
2013-12-15,55,43,35,44,38,29,97,82,53,30.08,29.69,11,1,0,0.00
2013-12-16,55,41,30,37,33,27,93,75,46,30.19,30.07,5,0,0,0.00
2013-12-17,62,48,34,41,37,32,94,68,41,30.13,29.87,15,1,0,0.00
2013-12-18,51,40,32,39,27,21,88,62,33,30.29,30.02,6,0,0,0.00
2013-12-19,61,46,30,32,28,25,87,55,28,30.34,30.22,6,1,0,0.00
2013-12-20,66,55,42,56,46,33,90,73,53,30.25,30.11,8,1,0,0.00
2013-12-21,73,61,49,66,57,47,97,85,70,30.15,30.03,15,1,0,0.00
2013-12-22,78,71,64,68,66,63,97,85,66,30.10,30.00,15,3,0,0.01
2013-12-23,67,60,47,66,59,42,99,96,85,30.13,29.98,11,1,0,0.06
2013-12-24,47,41,29,42,31,15,94,68,50,30.46,30.10,10,2,0,0.00
2013-12-25,39,30,24,21,16,12,80,57,35,30.56,30.41,10,1,0,0.00
2013-12-26,51,37,26,35,29,20,93,74,45,30.41,30.25,3,0,0,0.02
2013-12-27,53,39,29,29,25,22,80,60,31,30.48,30.37,7,0,0,0.00
2013-12-28,60,43,29,39,30,26,89,65,31,30.41,30.16,4,0,0,0.00
2013-12-29,64,50,44,64,48,35,100,92,61,30.17,29.67,6,1,0,0.06
2013-12-30,55,46,38,46,41,37,99,84,64,30.14,29.92,2,0,0,0.00
2013-12-31,51,42,34,37,32,25,92,69,38,30.36,30.11,7,1,0,0.00
2014-1-1,51,40,32,34,29,24,88,66,36,30.44,30.15,7,1,0,0.00
2014-1-2,48,44,39,46,39,32,97,84,71,30.16,29.56,7,0,0,0.02